Time;durP1;ratioP1;P1;durP2;ratioP2;P2;SDS_P1;SDS_P2;PMS_P1;PMS_P2;Temp;Humidity;BMP_temperature;BMP_pressure;BME280_temperature;BME280_humidity;BME280_pressure;Samples;Min_cycle;Max_cycle;Signal;HPM_P1;HPM_P2
2022/04/07 00:00:16;;;;;;;;;0.00;0.00;;;;;14.08;60.15;99441.59;2100880;28;47347;-54
2022/04/07 00:01:17;;;;;;;;;1.00;1.00;;;;;14.09;59.92;99440.63;2092928;28;47613;-54
2022/04/07 00:02:17;;;;;;;;;1.00;1.00;;;;;14.09;59.87;99445.97;2093191;28;48287;-53
2022/04/07 00:03:18;;;;;;;;;2.00;2.00;;;;;14.10;59.66;99445.06;2100402;28;47195;-54
2022/04/07 00:04:18;;;;;;;;;2.00;1.00;;;;;14.10;59.79;99450.38;2101637;28;47950;-56
2022/04/07 00:05:19;;;;;;;;;1.33;1.33;;;;;14.11;59.94;99445.91;2101221;28;47803;-52
2022/04/07 00:06:19;;;;;;;;;0.50;0.50;;;;;14.10;59.58;99439.72;2100954;28;47837;-53
2022/04/07 00:07:20;;;;;;;;;1.67;1.67;;;;;14.11;60.02;99445.91;2099530;28;47280;-54
2022/04/07 00:08:20;;;;;;;;;1.00;1.00;;;;;14.10;59.80;99442.38;2103026;28;48100;-56
2022/04/07 00:09:21;;;;;;;;;1.00;0.67;;;;;14.09;59.93;99434.44;2096819;28;47278;-53
2022/04/07 00:10:21;;;;;;;;;1.00;1.00;;;;;14.08;59.65;99436.25;2092884;28;47244;-54
2022/04/07 00:11:22;;;;;;;;;2.00;2.00;;;;;14.07;59.82;99429.19;2090200;28;48053;-50
2022/04/07 00:12:22;;;;;;;;;1.00;1.00;;;;;14.07;59.66;99428.34;2098512;28;47366;-53
2022/04/07 00:13:23;;;;;;;;;1.00;1.00;;;;;14.07;59.92;99423.84;2101696;28;47682;-54
2022/04/07 00:14:23;;;;;;;;;1.33;1.00;;;;;14.06;59.90;99415.94;2102284;28;47478;-53
2022/04/07 00:15:23;;;;;;;;;0.00;0.00;;;;;14.06;59.69;99427.47;2082841;28;47708;-52
2022/04/07 00:16:24;;;;;;;;;2.33;2.33;;;;;14.06;59.90;99423.94;2083869;28;47283;-55
2022/04/07 00:17:26;;;;;;;;;2.00;2.00;;;;;14.06;59.65;99410.63;2100856;28;47552;-53
2022/04/07 00:18:27;;;;;;;;;0.50;0.00;;;;;14.06;59.68;99422.16;2098419;28;48103;-54
2022/04/07 00:19:27;;;;;;;;;1.00;1.00;;;;;14.06;59.93;99407.94;2102545;28;48113;-53
2022/04/07 00:20:29;;;;;;;;;0.33;0.33;;;;;14.05;59.68;99409.75;2102442;28;47934;-54
2022/04/07 00:21:35;;;;;;;;;0.75;0.75;;;;;14.05;59.62;99404.41;2101275;28;47615;-50
2022/04/07 00:22:36;;;;;;;;;1.00;1.00;;;;;14.05;59.54;99411.56;2101049;28;47985;-54
2022/04/07 00:23:36;;;;;;;;;0.00;0.00;;;;;14.07;59.65;99417.66;2102436;28;47904;-53
2022/04/07 00:24:37;;;;;;;;;1.33;1.00;;;;;14.06;59.65;99414.13;2101057;28;47726;-52
2022/04/07 00:25:37;;;;;;;;;1.00;1.00;;;;;14.06;59.77;99411.47;2101428;28;47928;-52
2022/04/07 00:26:37;;;;;;;;;2.00;1.00;;;;;14.06;59.76;99406.13;2102282;28;47251;-53
2022/04/07 00:27:38;;;;;;;;;0.00;0.00;;;;;14.05;59.60;99412.41;2097943;28;47748;-54
2022/04/07 00:28:38;;;;;;;;;2.67;2.67;;;;;14.04;59.58;99408.03;2099353;28;47291;-53
2022/04/07 00:29:39;;;;;;;;;2.00;2.00;;;;;14.04;59.55;99417.84;2101306;28;47600;-56
2022/04/07 00:30:39;;;;;;;;;3.00;3.00;;;;;14.03;59.82;99408.13;2099534;28;47245;-54
2022/04/07 00:31:40;;;;;;;;;1.00;1.00;;;;;14.02;59.66;99395.75;2099249;28;47554;-53
2022/04/07 00:32:42;;;;;;;;;1.00;1.00;;;;;14.01;59.88;99400.22;2101326;28;47840;-53
2022/04/07 00:33:42;;;;;;;;;0.75;0.75;;;;;14.00;59.54;99408.31;2102144;28;48034;-54
2022/04/07 00:34:46;;;;;;;;;1.00;1.00;;;;;13.98;59.78;99399.53;2100821;28;47913;-54
2022/04/07 00:35:46;;;;;;;;;1.00;1.00;;;;;13.97;59.91;99406.66;2101297;28;47699;-54
2022/04/07 00:36:46;;;;;;;;;1.00;1.00;;;;;13.97;59.83;99401.31;2097305;28;48135;-55
2022/04/07 00:37:47;;;;;;;;;0.33;0.33;;;;;13.97;59.67;99395.97;2102011;27;47707;-55
2022/04/07 00:38:47;;;;;;;;;1.00;1.00;;;;;13.96;59.79;99393.41;2102338;27;47176;-55
2022/04/07 00:39:48;;;;;;;;;1.00;1.00;;;;;13.97;59.89;99395.13;2104823;27;47353;-53
2022/04/07 00:40:48;;;;;;;;;2.00;2.00;;;;;13.96;59.68;99409.41;2099575;27;48104;-53
2022/04/07 00:41:48;;;;;;;;;2.33;2.33;;;;;13.96;59.83;99402.25;2102756;27;47570;-53
2022/04/07 00:42:51;;;;;;;;;1.00;1.00;;;;;13.95;59.70;99397.03;2101725;27;47546;-55
2022/04/07 00:43:51;;;;;;;;;1.00;0.75;;;;;13.95;59.95;99391.69;2098744;27;47248;-55
2022/04/07 00:44:52;;;;;;;;;1.67;1.67;;;;;13.94;59.81;99385.50;2101701;27;47304;-55
2022/04/07 00:45:52;;;;;;;;;0.67;0.67;;;;;13.96;59.81;99383.59;2102078;27;48136;-53
2022/04/07 00:46:53;;;;;;;;;2.00;2.00;;;;;13.97;59.51;99389.78;2101328;27;48014;-54
2022/04/07 00:47:53;;;;;;;;;1.00;1.00;;;;;13.97;59.53;99385.31;2100409;27;47596;-55
2022/04/07 00:48:54;;;;;;;;;1.67;1.67;;;;;13.97;59.60;99385.31;2099944;27;47599;-53
2022/04/07 00:49:54;;;;;;;;;2.00;2.00;;;;;13.96;59.64;99375.59;2101950;27;47481;-56
2022/04/07 00:50:55;;;;;;;;;4.67;2.33;;;;;13.97;59.71;99368.44;2101116;27;47846;-52
2022/04/07 00:51:56;;;;;;;;;1.25;1.25;;;;;13.97;59.57;99376.44;2102054;27;47442;-54
2022/04/07 00:52:58;;;;;;;;;1.00;1.00;;;;;13.96;59.95;99386.25;2101224;27;47493;-53
2022/04/07 00:54:00;;;;;;;;;2.00;2.00;;;;;13.96;59.71;99366.72;2101282;27;47719;-55
2022/04/07 00:55:01;;;;;;;;;1.25;0.75;;;;;13.95;59.53;99360.53;2104766;27;47586;-52
2022/04/07 00:56:02;;;;;;;;;1.75;0.75;;;;;13.96;59.96;99364.06;2100458;27;48232;-54
2022/04/07 00:57:03;;;;;;;;;3.25;3.00;;;;;13.96;59.44;99354.25;2101183;27;48256;-52
2022/04/07 00:58:04;;;;;;;;;0.75;0.75;;;;;13.96;59.56;99353.41;2101367;27;47553;-55
2022/04/07 00:59:06;;;;;;;;;1.00;1.00;;;;;13.97;59.74;99360.44;2097185;27;47903;-53
2022/04/07 01:00:08;;;;;;;;;2.00;1.00;;;;;13.96;59.68;99362.25;2101432;28;48415;-52
2022/04/07 01:01:09;;;;;;;;;0.75;0.00;;;;;13.96;59.52;99353.41;2102410;27;47055;-54
2022/04/07 01:02:10;;;;;;;;;1.33;1.33;;;;;13.94;59.41;99348.16;2103265;27;47907;-52
2022/04/07 01:03:10;;;;;;;;;2.00;2.00;;;;;13.95;59.27;99341.00;2100739;27;47716;-52
2022/04/07 01:04:11;;;;;;;;;0.67;0.67;;;;;13.94;59.53;99331.28;2083133;28;47930;-53
2022/04/07 01:05:11;;;;;;;;;1.67;1.67;;;;;13.94;59.63;99332.16;2085054;28;47792;-54
2022/04/07 01:06:11;;;;;;;;;1.00;1.00;;;;;13.94;59.52;99332.16;2101614;27;48046;-53
2022/04/07 01:07:13;;;;;;;;;3.33;1.67;;;;;13.93;59.60;99326.91;2100467;27;47832;-55
2022/04/07 01:08:14;;;;;;;;;1.25;1.25;;;;;13.93;59.79;99322.44;2102156;27;47751;-54
2022/04/07 01:09:17;;;;;;;;;0.00;0.00;;;;;13.95;59.47;99322.34;2104667;27;47584;-52
2022/04/07 01:10:20;;;;;;;;;2.50;1.25;;;;;13.92;59.47;99318.06;2101118;27;48612;-52
2022/04/07 01:11:22;;;;;;;;;1.25;1.25;;;;;13.94;59.57;99318.81;2100707;27;47915;-56
2022/04/07 01:12:22;;;;;;;;;4.50;1.25;;;;;13.94;59.50;99313.47;2102117;27;47475;-53
2022/04/07 01:13:23;;;;;;;;;1.00;1.00;;;;;13.96;59.71;99318.72;2099419;27;48077;-55
2022/04/07 01:14:23;;;;;;;;;1.00;1.00;;;;;13.95;59.30;99306.34;2101038;28;47765;-54
2022/04/07 01:15:23;;;;;;;;;2.00;2.00;;;;;13.96;59.67;99303.56;2102159;27;47704;-54
2022/04/07 01:16:28;;;;;;;;;2.00;2.00;;;;;13.97;59.50;99305.28;2101450;27;45610;-55
2022/04/07 01:17:29;;;;;;;;;2.25;1.00;;;;;13.97;59.34;99307.97;2103445;27;48046;-55
2022/04/07 01:18:30;;;;;;;;;0.75;0.75;;;;;14.00;59.69;99306.94;2104868;27;48066;-54
2022/04/07 01:19:30;;;;;;;;;3.67;2.00;;;;;14.00;59.54;99305.16;2100416;28;47981;-53
2022/04/07 01:20:31;;;;;;;;;3.67;3.00;;;;;14.00;59.31;99299.81;2100904;27;48513;-54
2022/04/07 01:21:34;;;;;;;;;1.00;1.00;;;;;14.00;59.54;99298.94;2100848;27;47605;-54
2022/04/07 01:22:36;;;;;;;;;1.00;1.00;;;;;14.00;59.69;99301.63;2100803;27;47450;-54
2022/04/07 01:23:38;;;;;;;;;1.50;1.50;;;;;13.99;59.47;99306.09;2098276;27;47776;-53
2022/04/07 01:24:39;;;;;;;;;1.75;1.75;;;;;13.99;59.27;99299.91;2101523;27;48136;-54
2022/04/07 01:25:41;;;;;;;;;2.00;2.00;;;;;14.00;59.48;99301.63;2101415;27;47735;-54
2022/04/07 01:26:43;;;;;;;;;1.25;1.25;;;;;14.00;59.47;99305.16;2103636;27;48290;-55
2022/04/07 01:27:48;;;;;;;;;2.75;1.00;;;;;14.00;59.43;99299.81;2100073;27;47561;-51
2022/04/07 01:28:49;;;;;;;;;2.00;1.00;;;;;13.99;59.42;99295.44;2104836;27;48268;-52
2022/04/07 01:29:51;;;;;;;;;1.00;1.00;;;;;14.00;59.47;99293.63;2100631;27;47528;-52
2022/04/07 01:30:52;;;;;;;;;1.00;1.00;;;;;14.00;59.57;99293.63;2093176;28;47626;-56
2022/04/07 01:31:52;;;;;;;;;4.00;1.00;;;;;13.99;59.47;99299.91;2088728;28;47783;-55
2022/04/07 01:32:59;;;;;;;;;2.00;2.00;;;;;13.99;59.60;99294.56;2094312;28;47717;-55
2022/04/07 01:34:01;;;;;;;;;0.75;0.75;;;;;14.00;59.67;99305.16;2103360;27;48043;-55
2022/04/07 01:35:02;;;;;;;;;1.00;1.00;;;;;14.00;59.81;99306.94;2076206;28;47809;-51
2022/04/07 01:36:02;;;;;;;;;2.67;1.33;;;;;14.00;59.56;99298.94;2077374;28;47134;-52
2022/04/07 01:37:03;;;;;;;;;2.33;1.00;;;;;13.99;59.69;99298.09;2082839;28;47590;-54
2022/04/07 01:38:04;;;;;;;;;2.00;0.75;;;;;13.99;59.48;99292.75;2092895;28;47722;-53
2022/04/07 01:39:07;;;;;;;;;1.00;1.00;;;;;14.00;59.88;99293.63;2100629;27;48150;-53
2022/04/07 01:40:09;;;;;;;;;1.50;1.00;;;;;14.00;59.67;99288.28;2101598;27;48058;-54
2022/04/07 01:41:10;;;;;;;;;1.75;0.75;;;;;13.99;59.69;99275.91;2102449;27;47493;-53
2022/04/07 01:42:14;;;;;;;;;2.00;0.00;;;;;13.99;59.61;99282.09;2100257;28;47471;-54
2022/04/07 01:43:15;;;;;;;;;0.75;0.75;;;;;13.99;59.63;99283.91;2091355;28;48095;-50
2022/04/07 01:44:17;;;;;;;;;3.50;1.75;;;;;13.98;59.79;99279.50;2090584;28;47773;-49
2022/04/07 01:45:18;;;;;;;;;1.50;1.50;;;;;13.97;59.93;99283.09;2099406;28;48033;-50
2022/04/07 01:46:21;;;;;;;;;1.25;1.00;;;;;13.96;59.98;99294.72;2103138;27;47367;-54
2022/04/07 01:47:22;;;;;;;;;3.00;2.25;;;;;13.94;59.96;99281.47;2100838;27;47539;-53
2022/04/07 01:48:23;;;;;;;;;0.67;0.67;;;;;13.93;59.83;99278.91;2103764;27;47603;-54
2022/04/07 01:49:24;;;;;;;;;0.25;0.25;;;;;13.92;59.98;99277.19;2101610;27;47753;-54
2022/04/07 01:50:26;;;;;;;;;1.33;1.33;;;;;13.91;60.02;99268.34;2100537;27;48429;-53
2022/04/07 01:51:28;;;;;;;;;2.75;2.75;;;;;13.90;59.96;99268.41;2100973;27;47742;-54
2022/04/07 01:52:29;;;;;;;;;1.00;0.75;;;;;13.89;59.92;99269.38;2092337;28;47554;-54
2022/04/07 01:53:30;;;;;;;;;2.00;2.00;;;;;13.89;60.04;99269.38;2090663;27;47507;-51
2022/04/07 01:54:31;;;;;;;;;2.50;1.75;;;;;13.89;59.99;99264.03;2100482;27;47855;-55
2022/04/07 01:55:32;;;;;;;;;0.00;0.00;;;;;13.89;60.18;99264.91;2100975;27;47473;-53
2022/04/07 01:56:33;;;;;;;;;2.00;2.00;;;;;13.89;60.05;99264.03;2101816;27;47053;-50
2022/04/07 01:57:34;;;;;;;;;0.67;0.67;;;;;13.89;60.04;99254.22;2102434;27;47566;-55
2022/04/07 01:58:35;;;;;;;;;1.00;1.00;;;;;13.89;60.34;99248.91;2100473;27;47941;-55
2022/04/07 01:59:36;;;;;;;;;3.00;1.25;;;;;13.89;60.31;99251.56;2101629;27;47462;-51
2022/04/07 02:00:39;;;;;;;;;0.00;0.00;;;;;13.88;60.43;99249.84;2104065;27;47661;-51
2022/04/07 02:01:40;;;;;;;;;0.75;0.75;;;;;13.88;60.19;99257.84;2102406;27;47485;-53
2022/04/07 02:02:40;;;;;;;;;2.33;1.33;;;;;13.89;60.33;99258.72;2100958;27;47827;-54
2022/04/07 02:03:41;;;;;;;;;1.00;1.00;;;;;13.88;60.68;99251.66;2100680;27;47379;-54
2022/04/07 02:04:57;;;;;;;;;0.75;0.75;;;;;13.88;60.81;99259.66;2101501;28;46728;-55
2022/04/07 02:06:15;;;;;;;;;3.00;2.00;;;;;13.87;60.87;99261.47;2100538;27;48362;-52
2022/04/07 02:07:16;;;;;;;;;1.00;0.25;;;;;13.88;61.02;99251.66;2098813;28;46545;-53
2022/04/07 02:08:16;;;;;;;;;3.00;2.00;;;;;13.88;61.38;99251.66;2099709;28;47563;-54
2022/04/07 02:09:17;;;;;;;;;1.33;0.00;;;;;13.86;61.47;99253.56;2100638;27;47711;-54
2022/04/07 02:10:18;;;;;;;;;2.00;0.00;;;;;13.85;61.50;99250.03;2102915;27;47433;-53
2022/04/07 02:11:19;;;;;;;;;1.00;1.00;;;;;13.85;61.53;99252.69;2101724;27;47697;-54
2022/04/07 02:12:20;;;;;;;;;2.00;1.75;;;;;13.82;61.70;99248.38;2100737;27;47888;-54
2022/04/07 02:13:21;;;;;;;;;1.00;1.00;;;;;13.82;61.69;99250.19;2098098;27;47707;-53
2022/04/07 02:14:22;;;;;;;;;1.00;1.00;;;;;13.81;61.78;99249.34;2100651;28;48062;-51
2022/04/07 02:15:25;;;;;;;;;3.00;3.00;;;;;13.80;61.84;99252.94;2101317;27;47915;-52
2022/04/07 02:16:27;;;;;;;;;2.25;0.25;;;;;13.80;61.96;99244.94;2100096;27;47501;-53
2022/04/07 02:17:28;;;;;;;;;2.50;2.00;;;;;13.80;61.83;99257.44;2090567;28;47469;-53
2022/04/07 02:18:28;;;;;;;;;1.33;1.33;;;;;13.79;61.87;99243.25;2091704;28;47701;-51
2022/04/07 02:19:29;;;;;;;;;1.00;1.00;;;;;13.78;61.80;99241.53;2100145;27;48083;-52
2022/04/07 02:20:29;;;;;;;;;1.00;1.00;;;;;13.79;62.03;99237.03;2103414;27;48101;-53
2022/04/07 02:21:30;;;;;;;;;1.00;1.00;;;;;13.78;61.82;99238.00;2101270;27;47906;-53
2022/04/07 02:22:30;;;;;;;;;1.00;1.00;;;;;13.78;62.11;99235.34;2100888;27;50175;-51
2022/04/07 02:23:34;;;;;;;;;2.00;2.00;;;;;13.78;62.10;99232.66;2083073;28;47073;-54
2022/04/07 02:24:37;;;;;;;;;1.00;1.00;;;;;13.78;62.02;99244.19;2083535;28;47694;-53
2022/04/07 02:25:38;;;;;;;;;2.00;1.00;;;;;13.79;61.88;99235.22;2101286;27;47589;-54
2022/04/07 02:26:38;;;;;;;;;1.00;1.00;;;;;13.82;62.05;99234.19;2102891;27;47401;-53
2022/04/07 02:27:41;;;;;;;;;3.00;1.00;;;;;13.79;61.92;99240.56;2103220;28;47885;-55
2022/04/07 02:28:43;;;;;;;;;1.00;1.00;;;;;13.80;61.92;99230.75;2104548;27;48170;-53
2022/04/07 02:29:43;;;;;;;;;1.00;1.00;;;;;13.80;62.17;99234.28;2105388;27;48033;-54
2022/04/07 02:30:45;;;;;;;;;1.00;1.00;;;;;13.80;62.16;99223.63;2101819;27;47532;-54
2022/04/07 02:31:45;;;;;;;;;0.75;0.75;;;;;13.80;62.03;99223.63;2100435;27;47718;-52
2022/04/07 02:32:48;;;;;;;;;3.00;3.00;;;;;13.81;61.94;99220.00;2102988;27;47896;-53
2022/04/07 02:33:48;;;;;;;;;2.00;1.25;;;;;13.81;62.04;99212.00;2103634;27;48132;-53
2022/04/07 02:34:48;;;;;;;;;0.00;0.00;;;;;13.82;62.06;99212.84;2076801;28;47442;-53
2022/04/07 02:35:50;;;;;;;;;1.67;1.00;;;;;13.83;61.94;99218.09;2077062;28;47616;-52
2022/04/07 02:36:51;;;;;;;;;2.00;2.00;;;;;13.83;62.21;99204.78;2100756;27;47882;-53
2022/04/07 02:37:51;;;;;;;;;1.00;1.00;;;;;13.84;62.29;99201.16;2102966;27;47798;-54
2022/04/07 02:38:51;;;;;;;;;2.67;2.67;;;;;13.85;62.25;99207.38;2103100;27;47631;-54
2022/04/07 02:39:53;;;;;;;;;1.00;1.00;;;;;13.84;62.21;99186.97;2102513;27;47530;-52
2022/04/07 02:40:53;;;;;;;;;1.00;1.00;;;;;13.84;62.37;99195.81;2101835;27;48031;-53
2022/04/07 02:41:54;;;;;;;;;0.00;0.00;;;;;13.83;62.67;99193.25;2083412;28;47786;-54
2022/04/07 02:42:54;;;;;;;;;2.33;1.67;;;;;13.82;62.72;99199.53;2085728;28;47703;-51
2022/04/07 02:43:55;;;;;;;;;1.00;1.00;;;;;13.82;62.70;99195.06;2101808;27;48226;-50
2022/04/07 02:44:55;;;;;;;;;1.50;1.50;;;;;13.80;62.71;99191.63;2103771;27;47762;-52
2022/04/07 02:45:56;;;;;;;;;1.00;1.00;;;;;13.81;62.94;99187.16;2103121;27;47917;-52
2022/04/07 02:46:56;;;;;;;;;1.00;1.00;;;;;13.80;63.00;99183.63;2104904;27;47871;-50
2022/04/07 02:47:57;;;;;;;;;4.00;1.33;;;;;13.81;62.99;99176.47;2104098;27;48033;-54
2022/04/07 02:48:57;;;;;;;;;1.00;1.00;;;;;13.81;63.09;99184.47;2102845;27;47392;-50
2022/04/07 02:49:58;;;;;;;;;2.33;1.67;;;;;13.80;63.19;99172.09;2084279;28;48167;-50
2022/04/07 02:50:58;;;;;;;;;1.00;1.00;;;;;13.80;63.25;99169.44;2084941;28;47362;-53
2022/04/07 02:51:59;;;;;;;;;2.33;1.33;;;;;13.79;63.32;99168.59;2101970;27;46577;-51
2022/04/07 02:52:59;;;;;;;;;1.67;1.00;;;;;13.80;63.51;99180.09;2105399;27;46933;-52
2022/04/07 02:54:00;;;;;;;;;3.00;1.00;;;;;13.80;63.51;99161.44;2101961;27;47677;-54
2022/04/07 02:55:02;;;;;;;;;2.00;1.00;;;;;13.79;63.69;99163.25;2101963;28;47406;-54
2022/04/07 02:56:03;;;;;;;;;2.00;2.00;;;;;13.79;63.36;99159.72;2107991;27;48132;-54
2022/04/07 02:57:04;;;;;;;;;3.00;1.00;;;;;13.78;63.60;99155.34;2106873;27;47684;-51
2022/04/07 02:58:05;;;;;;;;;1.00;1.00;;;;;13.78;63.75;99158.88;2110474;27;47826;-54
2022/04/07 02:59:06;;;;;;;;;1.67;1.00;;;;;13.79;63.59;99146.38;2103551;27;47873;-52
2022/04/07 03:00:07;;;;;;;;;1.50;0.75;;;;;13.80;63.64;99140.97;2102025;27;47634;-54
2022/04/07 03:01:14;;;;;;;;;2.25;2.25;;;;;13.80;63.68;99145.44;2111404;27;47857;-55
2022/04/07 03:02:14;;;;;;;;;1.75;1.75;;;;;13.80;63.69;99146.28;2105695;27;47582;-57
2022/04/07 03:03:15;;;;;;;;;3.00;1.00;;;;;13.80;63.66;99138.28;2097120;28;47154;-52
2022/04/07 03:04:15;;;;;;;;;1.00;1.00;;;;;13.80;63.80;99140.97;2101292;28;47594;-54
2022/04/07 03:05:16;;;;;;;;;2.33;1.67;;;;;13.81;63.84;99131.16;2101483;27;48055;-52
2022/04/07 03:06:16;;;;;;;;;2.00;1.33;;;;;13.81;63.62;99140.00;2103904;27;47380;-52
2022/04/07 03:07:17;;;;;;;;;1.33;1.33;;;;;13.82;63.74;99127.53;2108508;27;47501;-53
2022/04/07 03:08:17;;;;;;;;;1.00;1.00;;;;;13.83;63.67;99127.44;2107249;27;47403;-52
2022/04/07 03:09:18;;;;;;;;;1.00;1.00;;;;;13.83;63.82;99122.09;2109860;27;47071;-53
2022/04/07 03:10:19;;;;;;;;;2.00;1.75;;;;;13.81;63.77;99124.00;2106296;27;47688;-55
2022/04/07 03:11:19;;;;;;;;;2.00;2.00;;;;;13.82;63.96;99127.53;2106462;27;47712;-53
2022/04/07 03:12:20;;;;;;;;;1.00;1.00;;;;;13.81;63.76;99124.00;2105214;27;47690;-53
2022/04/07 03:13:20;;;;;;;;;2.00;2.00;;;;;13.82;63.78;99124.88;2101426;27;47721;-54
2022/04/07 03:14:22;;;;;;;;;1.00;1.00;;;;;13.82;64.21;99114.19;2110486;27;48048;-52
2022/04/07 03:15:23;;;;;;;;;2.00;2.00;;;;;13.83;63.94;99115.91;2102050;27;47779;-54
2022/04/07 03:16:23;;;;;;;;;4.00;2.00;;;;;13.82;63.87;99109.72;2104691;27;48044;-54
2022/04/07 03:17:24;;;;;;;;;2.00;2.00;;;;;13.83;64.21;99108.78;2112611;27;47623;-53
2022/04/07 03:18:24;;;;;;;;;2.00;2.00;;;;;13.84;64.28;99110.50;2108331;27;47521;-53
2022/04/07 03:19:25;;;;;;;;;1.33;1.33;;;;;13.84;63.90;99107.81;2111540;27;48065;-54
2022/04/07 03:20:25;;;;;;;;;3.00;3.00;;;;;13.84;63.97;99099.81;2110726;27;47643;-53
2022/04/07 03:21:25;;;;;;;;;1.67;1.67;;;;;13.85;63.82;99103.38;2105607;27;47840;-54
2022/04/07 03:22:26;;;;;;;;;1.00;1.00;;;;;13.85;64.01;99103.38;2113116;27;48010;-55
2022/04/07 03:23:26;;;;;;;;;1.00;1.00;;;;;13.87;64.00;99101.47;2109306;27;48235;-52
2022/04/07 03:24:27;;;;;;;;;2.00;2.00;;;;;13.87;64.04;99095.28;2109708;27;47648;-56
2022/04/07 03:25:27;;;;;;;;;1.33;1.33;;;;;13.89;63.97;99098.72;2112435;27;45669;-49
2022/04/07 03:26:28;;;;;;;;;3.00;2.00;;;;;13.89;63.97;99082.72;2106333;27;47947;-56
2022/04/07 03:27:28;;;;;;;;;1.00;1.00;;;;;13.90;64.02;99073.75;2103293;27;47386;-54
2022/04/07 03:28:28;;;;;;;;;2.67;2.00;;;;;13.90;63.82;99098.59;2101311;27;47792;-53
2022/04/07 03:29:30;;;;;;;;;2.00;2.00;;;;;13.90;64.02;99079.94;2099825;27;47130;-55
2022/04/07 03:30:30;;;;;;;;;2.75;2.75;;;;;13.89;64.14;99075.56;2109497;27;47730;-55
2022/04/07 03:31:31;;;;;;;;;1.67;1.67;;;;;13.89;64.10;99066.72;2099505;27;47219;-55
2022/04/07 03:32:31;;;;;;;;;1.00;1.00;;;;;13.89;64.45;99058.72;2103730;27;47777;-54
2022/04/07 03:33:32;;;;;;;;;1.00;1.00;;;;;13.87;64.51;99069.47;2103032;27;47614;-54
2022/04/07 03:34:33;;;;;;;;;1.33;1.33;;;;;13.87;64.34;99060.63;2109099;27;47990;-54
2022/04/07 03:35:38;;;;;;;;;1.25;1.00;;;;;13.86;64.16;99050.91;2101168;27;47458;-54
2022/04/07 03:36:39;;;;;;;;;2.25;1.75;;;;;13.86;64.34;99049.09;2106495;27;47654;-52
2022/04/07 03:37:39;;;;;;;;;2.00;2.00;;;;;13.87;64.38;99049.94;2104749;27;47895;-52
2022/04/07 03:38:40;;;;;;;;;2.00;2.00;;;;;13.86;64.50;99035.75;2111491;27;48124;-53
2022/04/07 03:39:40;;;;;;;;;1.33;1.00;;;;;13.88;64.54;99043.66;2108084;27;47825;-54
2022/04/07 03:40:41;;;;;;;;;1.67;1.00;;;;;13.88;64.58;99041.84;2112500;27;47596;-56
2022/04/07 03:41:41;;;;;;;;;2.00;2.00;;;;;13.88;64.66;99041.00;2109041;27;47959;-54
2022/04/07 03:42:42;;;;;;;;;1.67;1.67;;;;;13.88;64.72;99030.34;2082260;28;47631;-53
2022/04/07 03:43:42;;;;;;;;;2.00;2.00;;;;;13.88;64.67;99027.66;2070413;28;47528;-54
2022/04/07 03:44:43;;;;;;;;;1.33;1.00;;;;;13.87;64.80;99012.63;2107095;27;47212;-53
2022/04/07 03:45:43;;;;;;;;;2.00;1.00;;;;;13.86;64.62;99014.44;2104630;27;47130;-52
2022/04/07 03:46:43;;;;;;;;;2.00;2.00;;;;;13.86;64.71;99009.09;2110123;27;47859;-55
2022/04/07 03:47:44;;;;;;;;;3.67;2.33;;;;;13.87;64.83;99005.47;2106234;27;47308;-55
2022/04/07 03:48:45;;;;;;;;;1.33;1.33;;;;;13.88;65.02;99004.53;2112112;27;47733;-52
2022/04/07 03:49:45;;;;;;;;;3.00;2.00;;;;;13.89;64.77;98989.38;2109855;27;47392;-54
2022/04/07 03:50:46;;;;;;;;;1.67;1.67;;;;;13.90;64.79;98994.59;2099829;28;47971;-54
2022/04/07 03:51:46;;;;;;;;;5.33;2.00;;;;;13.90;64.72;98994.59;2095427;28;47508;-55
2022/04/07 03:52:46;;;;;;;;;1.33;1.33;;;;;13.91;64.83;98975.00;2107766;27;47893;-54
2022/04/07 03:53:47;;;;;;;;;3.00;3.00;;;;;13.92;64.84;98989.19;2110494;27;48257;-54
2022/04/07 03:54:47;;;;;;;;;2.00;2.00;;;;;13.93;64.70;98977.56;2111501;27;47537;-55
2022/04/07 03:55:48;;;;;;;;;2.00;2.00;;;;;13.92;64.90;98968.69;2099750;28;47949;-54
2022/04/07 03:56:48;;;;;;;;;2.00;2.00;;;;;13.93;65.37;98973.06;2103026;28;47573;-53
2022/04/07 03:57:48;;;;;;;;;2.67;2.67;;;;;13.93;64.78;98962.41;2105307;27;47420;-51
2022/04/07 03:58:49;;;;;;;;;3.00;3.00;;;;;13.94;64.77;98963.25;2104822;27;47907;-55
2022/04/07 03:59:50;;;;;;;;;1.67;1.67;;;;;13.93;65.25;98957.06;2104866;27;47529;-54
2022/04/07 04:00:50;;;;;;;;;1.75;1.75;;;;;13.92;65.11;98960.69;2108257;27;48206;-54
2022/04/07 04:01:51;;;;;;;;;3.00;2.67;;;;;13.95;64.84;98959.63;2110607;27;47914;-53
2022/04/07 04:02:51;;;;;;;;;5.67;2.33;;;;;13.94;65.13;98948.13;2111448;27;47283;-55
2022/04/07 04:03:53;;;;;;;;;3.00;2.00;;;;;13.94;64.89;98953.44;2109012;27;47611;-53
2022/04/07 04:04:53;;;;;;;;;2.25;2.00;;;;;13.93;65.21;98943.75;2111982;27;47776;-54
2022/04/07 04:05:54;;;;;;;;;2.67;2.67;;;;;13.93;65.16;98938.41;2094542;28;47663;-55
2022/04/07 04:06:54;;;;;;;;;2.67;2.67;;;;;13.94;64.90;98952.59;2095680;28;47828;-54
2022/04/07 04:07:56;;;;;;;;;2.67;2.00;;;;;13.92;65.16;98950.03;2104476;28;47282;-53
2022/04/07 04:08:56;;;;;;;;;3.00;1.00;;;;;13.92;64.96;98934.03;2103981;27;47768;-54
2022/04/07 04:09:57;;;;;;;;;4.33;3.33;;;;;13.92;65.21;98941.19;2104347;27;47620;-54
2022/04/07 04:10:57;;;;;;;;;3.00;3.00;;;;;13.92;64.68;98933.19;2104571;27;47498;-55
2022/04/07 04:11:57;;;;;;;;;1.00;1.00;;;;;13.90;65.02;98941.28;2103280;27;47589;-54
2022/04/07 04:12:58;;;;;;;;;1.33;1.00;;;;;13.90;65.31;98941.28;2104482;27;47501;-54
2022/04/07 04:13:58;;;;;;;;;2.67;1.67;;;;;13.90;65.28;98935.09;2104787;27;47409;-54
2022/04/07 04:15:01;;;;;;;;;1.00;1.00;;;;;13.90;65.36;98941.28;2105423;27;47228;-53
2022/04/07 04:16:01;;;;;;;;;0.50;0.50;;;;;13.91;65.24;98931.47;2102959;27;47328;-54
2022/04/07 04:17:02;;;;;;;;;1.00;1.00;;;;;13.91;65.37;98934.13;2098834;28;47394;-55
2022/04/07 04:18:03;;;;;;;;;1.75;1.75;;;;;13.91;65.00;98926.13;2094447;28;47410;-55
2022/04/07 04:19:04;;;;;;;;;2.33;2.33;;;;;13.90;65.32;98927.09;2109324;27;47976;-49
2022/04/07 04:20:05;;;;;;;;;2.00;2.00;;;;;13.90;65.21;98927.94;2092795;28;47862;-53
2022/04/07 04:21:05;;;;;;;;;2.33;1.00;;;;;13.91;65.32;98915.47;2092004;28;47834;-54
2022/04/07 04:22:05;;;;;;;;;3.67;2.00;;;;;13.91;65.89;98891.47;2110916;27;48104;-53
2022/04/07 04:23:06;;;;;;;;;1.67;1.33;;;;;13.91;65.49;98926.13;2103857;27;47782;-54
2022/04/07 04:24:07;;;;;;;;;2.00;2.00;;;;;13.91;65.55;98921.66;2108224;27;47357;-55
2022/04/07 04:25:08;;;;;;;;;1.00;0.50;;;;;13.90;65.30;98919.94;2106709;27;47806;-54
2022/04/07 04:26:08;;;;;;;;;2.75;2.75;;;;;13.91;65.46;98921.66;2101334;28;47965;-52
2022/04/07 04:27:09;;;;;;;;;0.67;0.67;;;;;13.91;65.35;98927.00;2104999;27;47915;-54
2022/04/07 04:28:09;;;;;;;;;3.67;3.67;;;;;13.91;65.79;98911.00;2104197;27;47762;-55
2022/04/07 04:29:09;;;;;;;;;2.00;2.00;;;;;13.90;65.21;98930.63;2100371;28;47726;-53
2022/04/07 04:30:13;;;;;;;;;1.67;1.67;;;;;13.93;65.38;98918.88;2101824;28;47641;-53
2022/04/07 04:31:13;;;;;;;;;1.00;1.00;;;;;13.93;65.24;98919.75;2094285;28;48045;-54
2022/04/07 04:32:14;;;;;;;;;2.00;2.00;;;;;13.93;65.60;98927.75;2095364;28;47548;-54
2022/04/07 04:33:14;;;;;;;;;3.00;2.67;;;;;13.95;65.39;98900.97;2104498;28;47576;-54
2022/04/07 04:34:14;;;;;;;;;2.00;2.00;;;;;13.94;65.34;98913.44;2104349;28;48428;-54
2022/04/07 04:35:15;;;;;;;;;1.00;1.00;;;;;13.95;65.07;98915.16;2103437;28;47682;-54
2022/04/07 04:36:15;;;;;;;;;2.00;2.00;;;;;13.95;65.27;98911.63;2104497;28;47387;-53
2022/04/07 04:37:16;;;;;;;;;1.33;1.33;;;;;13.95;65.35;98915.16;2104300;28;47745;-53
2022/04/07 04:38:16;;;;;;;;;3.67;2.33;;;;;13.97;65.29;98920.41;2095299;28;47695;-54
2022/04/07 04:39:17;;;;;;;;;2.67;2.67;;;;;13.98;65.28;98908.81;2095553;28;46461;-53
2022/04/07 04:40:18;;;;;;;;;2.00;2.00;;;;;13.99;65.29;98921.19;2095235;28;47882;-53
2022/04/07 04:41:18;;;;;;;;;2.00;1.50;;;;;13.99;65.15;98911.38;2101688;28;47993;-53
2022/04/07 04:42:19;;;;;;;;;0.67;0.67;;;;;14.00;65.47;98917.56;2102008;28;47544;-53
2022/04/07 04:43:19;;;;;;;;;1.00;1.00;;;;;13.99;65.55;98910.50;2104522;28;47326;-53
2022/04/07 04:44:20;;;;;;;;;2.67;2.00;;;;;13.98;65.74;98904.31;2104539;28;47588;-54
2022/04/07 04:45:20;;;;;;;;;3.00;3.00;;;;;13.98;65.49;98908.81;2100878;28;47240;-52
2022/04/07 04:46:21;;;;;;;;;2.00;2.00;;;;;13.97;65.67;98899.91;2096146;28;46605;-53
2022/04/07 04:47:21;;;;;;;;;2.00;2.00;;;;;13.98;65.57;98907.00;2103729;27;47748;-54